Time;durP1;ratioP1;P1;durP2;ratioP2;P2;SDS_P1;SDS_P2;PMS_P1;PMS_P2;Temp;Humidity;BMP_temperature;BMP_pressure;BME280_temperature;BME280_humidity;BME280_pressure;Samples;Min_cycle;Max_cycle;Signal;HPM_P1;HPM_P2
2022/02/18 00:02:19;;;;;;;6.95;1.15;;;;;;;5.75;67.23;100157.94;5024279;28;20049;-86
2022/02/18 00:04:47;;;;;;;12.02;2.33;;;;;;;5.78;67.51;100153.63;5031068;28;20565;-87
2022/02/18 00:07:14;;;;;;;7.60;1.45;;;;;;;5.81;67.53;100165.78;5038902;28;20093;-86
2022/02/18 00:09:41;;;;;;;9.80;1.25;;;;;;;5.90;67.60;100170.13;5038830;28;20056;-86
2022/02/18 00:12:08;;;;;;;4.95;1.13;;;;;;;5.91;67.50;100171.88;5027344;28;20056;-87
2022/02/18 00:14:35;;;;;;;7.47;2.13;;;;;;;5.97;67.66;100179.66;5054953;28;20045;-86
2022/02/18 00:17:25;;;;;;;12.40;1.80;;;;;;;5.94;67.68;100187.44;5042627;28;20038;-87
2022/02/18 00:19:52;;;;;;;4.25;2.35;;;;;;;5.93;67.58;100189.19;5019754;28;20053;-87
2022/02/18 00:22:19;;;;;;;9.35;2.03;;;;;;;5.90;68.30;100199.56;5008449;28;20053;-86
2022/02/18 00:24:46;;;;;;;4.30;0.75;;;;;;;5.86;68.60;100184.84;4999269;28;20061;-86
2022/02/18 00:27:17;;;;;;;7.55;1.30;;;;;;;5.83;68.92;100197.81;4996530;28;20049;-87
2022/02/18 00:29:47;;;;;;;8.98;1.85;;;;;;;5.78;69.19;100192.59;5035201;28;20053;-88
2022/02/18 00:32:24;;;;;;;6.70;1.67;;;;;;;5.82;69.66;100197.81;5012611;28;20677;-86
2022/02/18 00:34:51;;;;;;;5.63;1.50;;;;;;;5.83;69.82;100202.13;5022116;28;21003;-87
2022/02/18 00:37:20;;;;;;;5.60;1.15;;;;;;;5.80;70.29;100203.00;5007021;28;20042;-87
2022/02/18 00:39:47;;;;;;;5.75;1.10;;;;;;;5.81;71.56;100209.94;5024470;28;20157;-85
2022/02/18 00:42:13;;;;;;;5.95;1.33;;;;;;;5.76;72.62;100216.84;5014138;28;20053;-88
2022/02/18 00:44:40;;;;;;;5.45;1.27;;;;;;;5.70;73.26;100228.06;5014765;28;20130;-85
2022/02/18 00:47:07;;;;;;;3.85;1.20;;;;;;;5.62;74.44;100215.06;5006175;28;20594;-88
2022/02/18 00:49:34;;;;;;;8.65;1.38;;;;;;;5.55;77.15;100223.66;5011718;28;20049;-87
2022/02/18 00:52:01;;;;;;;8.70;3.05;;;;;;;5.51;77.07;100221.06;4992434;28;20503;-87
2022/02/18 00:54:27;;;;;;;5.65;1.80;;;;;;;5.51;78.35;100223.66;4997486;28;20107;-85
2022/02/18 00:56:57;;;;;;;7.65;1.92;;;;;;;5.46;78.56;100224.50;4995219;28;21004;-87
2022/02/18 00:59:25;;;;;;;2.63;1.00;;;;;;;5.41;80.51;100214.94;5011270;28;20048;-86
2022/02/18 01:01:53;;;;;;;7.15;1.38;;;;;;;5.33;82.84;100222.69;5029141;28;20120;-85
2022/02/18 01:04:20;;;;;;;1.08;0.90;;;;;;;5.16;84.43;100208.75;5009969;28;20407;-87
2022/02/18 01:06:50;;;;;;;5.80;1.27;;;;;;;5.03;87.00;100208.69;4995565;28;21415;-87
2022/02/18 01:09:17;;;;;;;5.50;1.27;;;;;;;4.85;90.34;100222.41;5011999;28;21050;-89
2022/02/18 01:14:31;;;;;;;3.38;1.05;;;;;;;4.63;94.25;100211.84;4999486;28;20135;-87
2022/02/18 01:16:58;;;;;;;8.88;1.65;;;;;;;4.52;95.77;100210.88;5007208;28;20059;-88
2022/02/18 01:19:26;;;;;;;4.90;1.50;;;;;;;4.46;95.83;100222.06;5011213;28;20075;-87
2022/02/18 01:21:54;;;;;;;5.78;1.23;;;;;;;4.45;97.44;100215.16;5015849;28;20164;-87
2022/02/18 01:27:41;;;;;;;4.03;0.90;;;;;;;4.34;98.60;100215.91;5026185;28;20912;-86
2022/02/18 01:32:56;;;;;;;8.32;1.40;;;;;;;4.25;99.17;100208.91;5016884;28;20049;-87
2022/02/18 01:35:27;;;;;;;2.58;0.95;;;;;;;4.27;99.45;100202.88;5004923;28;20052;-87
2022/02/18 01:38:01;;;;;;;10.77;3.72;;;;;;;4.28;99.45;100208.97;5013235;28;20041;-88
2022/02/18 01:40:29;;;;;;;2.17;1.08;;;;;;;4.32;98.54;100197.75;5011573;28;20168;-87
2022/02/18 01:42:56;;;;;;;7.57;1.70;;;;;;;4.31;98.80;100201.19;5026170;28;20068;-88
2022/02/18 01:45:34;;;;;;;4.32;1.60;;;;;;;4.33;98.42;100201.22;5028655;28;20672;-87
2022/02/18 01:48:08;;;;;;;3.00;1.40;;;;;;;4.27;98.33;100200.28;5020488;28;20041;-87
2022/02/18 01:50:39;;;;;;;6.15;1.65;;;;;;;4.28;97.95;100204.63;5018110;28;20040;-86
2022/02/18 01:53:11;;;;;;;1.58;1.10;;;;;;;4.28;98.10;100214.13;5030862;28;20466;-86
2022/02/18 01:55:37;;;;;;;6.45;1.00;;;;;;;4.32;98.02;100202.94;5023769;28;20056;-85
2022/02/18 01:58:06;;;;;;;3.97;1.35;;;;;;;4.34;97.67;100198.66;5047901;28;20158;-84
2022/02/18 02:00:36;;;;;;;3.60;1.10;;;;;;;4.37;97.29;100201.25;5010792;28;20064;-87
2022/02/18 02:03:03;;;;;;;6.18;1.25;;;;;;;4.40;96.51;100206.47;5020192;28;20052;-87
2022/02/18 02:05:30;;;;;;;4.63;1.10;;;;;;;4.45;95.94;100202.19;5046802;28;20053;-86
2022/02/18 02:07:59;;;;;;;7.82;1.27;;;;;;;4.47;95.25;100197.00;5007421;28;20055;-87
2022/02/18 02:10:28;;;;;;;5.78;1.38;;;;;;;4.46;94.80;100190.97;5047054;28;20434;-86
2022/02/18 02:12:58;;;;;;;10.57;1.90;;;;;;;4.47;93.61;100192.72;5041323;28;20049;-85
2022/02/18 02:15:29;;;;;;;6.68;1.85;;;;;;;4.43;93.86;100192.66;5030307;28;20140;-87
2022/02/18 02:18:07;;;;;;;8.02;2.45;;;;;;;4.42;93.73;100196.09;5014951;28;20056;-86
2022/02/18 02:20:34;;;;;;;4.25;1.77;;;;;;;4.46;93.77;100182.34;5028118;28;20059;-85
2022/02/18 02:23:04;;;;;;;15.95;3.03;;;;;;;4.43;93.06;100190.06;5015454;28;20211;-87
2022/02/18 02:25:43;;;;;;;5.05;1.75;;;;;;;4.38;93.06;100192.66;5023697;28;20040;-86
2022/02/18 02:28:13;;;;;;;4.03;2.10;;;;;;;4.37;93.53;100192.59;5027929;28;20045;-87
2022/02/18 02:30:41;;;;;;;5.90;2.70;;;;;;;4.35;93.47;100184.81;5008885;28;20604;-84
2022/02/18 02:33:09;;;;;;;5.43;3.03;;;;;;;4.39;93.01;100186.56;5013911;28;20064;-88
2022/02/18 02:35:45;;;;;;;5.68;2.65;;;;;;;4.37;93.03;100174.47;5014180;28;20438;-86
2022/02/18 02:38:13;;;;;;;5.28;2.28;;;;;;;4.40;92.86;100169.31;5023931;28;20053;-86
2022/02/18 02:40:41;;;;;;;13.18;3.35;;;;;;;4.38;92.90;100165.84;5044647;28;20059;-88
2022/02/18 02:43:09;;;;;;;7.05;2.78;;;;;;;4.34;93.33;100161.50;5043738;28;20819;-86
2022/02/18 02:45:36;;;;;;;5.85;2.90;;;;;;;4.32;93.47;100171.00;5018506;28;20678;-86
2022/02/18 02:48:07;;;;;;;8.55;3.10;;;;;;;4.32;93.59;100165.81;5030603;28;20438;-86
2022/02/18 02:50:37;;;;;;;7.88;3.35;;;;;;;4.29;93.84;100151.09;5007850;28;20044;-86
2022/02/18 02:53:04;;;;;;;9.13;2.55;;;;;;;4.30;93.76;100139.88;5030414;28;20048;-87
2022/02/18 02:55:36;;;;;;;7.53;2.80;;;;;;;4.32;93.43;100147.69;5025315;28;20675;-88
2022/02/18 02:58:06;;;;;;;8.90;2.78;;;;;;;4.31;93.76;100146.78;5029919;28;20048;-86
2022/02/18 03:00:33;;;;;;;16.10;2.95;;;;;;;4.29;93.64;100154.56;5032835;28;20060;-86
2022/02/18 03:03:00;;;;;;;8.38;2.60;;;;;;;4.27;93.74;100140.69;5040870;28;20060;-86
2022/02/18 03:05:28;;;;;;;8.30;3.25;;;;;;;4.26;93.61;100151.94;5033584;28;20053;-87
2022/02/18 03:08:03;;;;;;;10.15;3.13;;;;;;;4.20;93.93;100157.06;5027638;28;20083;-87
2022/02/18 03:10:30;;;;;;;9.27;2.42;;;;;;;4.16;94.55;100160.50;5036589;28;20059;-87
2022/02/18 03:13:04;;;;;;;7.32;2.53;;;;;;;4.12;95.00;100161.31;5046225;28;20049;-88
2022/02/18 03:15:34;;;;;;;9.80;3.42;;;;;;;4.08;95.30;100152.63;5023928;28;22478;-85
2022/02/18 03:18:08;;;;;;;6.22;2.63;;;;;;;4.11;95.51;100144.03;5037945;28;20400;-86
2022/02/18 03:20:38;;;;;;;7.97;2.30;;;;;;;4.17;95.42;100154.44;5016701;28;20468;-87
2022/02/18 03:23:05;;;;;;;9.15;3.05;;;;;;;4.18;95.45;100157.91;5035225;28;20056;-87
2022/02/18 03:25:33;;;;;;;6.05;2.38;;;;;;;4.16;95.24;100160.50;5019394;28;20108;-86
2022/02/18 03:27:59;;;;;;;11.48;3.28;;;;;;;4.14;95.78;100152.69;5022691;28;20053;-87
2022/02/18 03:30:29;;;;;;;15.85;3.08;;;;;;;4.15;96.06;100153.56;5014692;28;20076;-86
2022/02/18 03:32:56;;;;;;;10.20;2.92;;;;;;;4.16;95.81;100155.31;5023572;28;20216;-86
2022/02/18 03:35:23;;;;;;;7.10;2.67;;;;;;;4.12;96.25;100159.59;5019947;28;20052;-86
2022/02/18 03:37:50;;;;;;;11.20;2.95;;;;;;;4.17;96.43;100164.78;5038870;28;20044;-87
2022/02/18 03:40:19;;;;;;;16.92;3.17;;;;;;;4.20;96.13;100171.72;5015344;28;20131;-86
2022/02/18 03:42:49;;;;;;;9.73;2.72;;;;;;;4.18;96.28;100171.72;5035581;28;20053;-87
2022/02/18 03:45:18;;;;;;;10.98;2.92;;;;;;;4.16;96.62;100172.56;5031576;28;20129;-87
2022/02/18 03:47:57;;;;;;;12.23;3.75;;;;;;;4.11;96.95;100173.38;5035046;28;20104;-86
2022/02/18 03:50:24;;;;;;;11.98;2.67;;;;;;;4.03;97.23;100159.50;5028938;28;21580;-84
2022/02/18 03:52:53;;;;;;;12.77;2.72;;;;;;;3.92;97.42;100161.09;5019650;28;20053;-87
2022/02/18 03:55:21;;;;;;;12.18;3.13;;;;;;;3.86;97.83;100168.81;5040986;28;20132;-87
2022/02/18 03:57:48;;;;;;;7.10;2.65;;;;;;;3.79;98.67;100158.41;5032306;28;20071;-87
2022/02/18 04:00:15;;;;;;;12.68;3.65;;;;;;;3.78;98.95;100159.25;5042241;28;20519;-88
2022/02/18 04:02:42;;;;;;;18.33;4.55;;;;;;;3.75;99.35;100150.56;5032248;28;20099;-88
2022/02/18 04:05:09;;;;;;;14.68;3.55;;;;;;;3.71;99.03;100148.81;5030810;28;20066;-86
2022/02/18 04:07:39;;;;;;;6.43;2.97;;;;;;;3.71;99.73;100156.56;5037366;28;20056;-88
2022/02/18 04:10:06;;;;;;;11.18;2.75;;;;;;;3.83;99.70;100158.41;5054800;28;20064;-90
2022/02/18 04:12:33;;;;;;;14.48;3.15;;;;;;;3.86;99.34;100161.91;5015659;28;20079;-86
2022/02/18 04:15:04;;;;;;;13.13;4.15;;;;;;;3.97;99.14;100156.84;5068316;28;20818;-87
2022/02/18 04:17:34;;;;;;;12.30;3.15;;;;;;;4.05;98.74;100162.94;5046825;28;20175;-86
2022/02/18 04:20:05;;;;;;;11.65;3.13;;;;;;;4.13;98.39;100156.16;5024955;28;20045;-88
2022/02/18 04:22:34;;;;;;;16.48;3.45;;;;;;;4.19;98.54;100151.88;5043390;28;20071;-87
2022/02/18 04:25:04;;;;;;;11.95;4.65;;;;;;;4.29;98.31;100151.09;5045659;28;20235;-88
2022/02/18 04:27:35;;;;;;;13.15;4.38;;;;;;;4.36;97.91;100152.03;5017307;28;20045;-88
2022/02/18 04:30:06;;;;;;;12.85;4.05;;;;;;;4.39;97.62;100152.88;5029051;28;20044;-88
2022/02/18 04:32:34;;;;;;;12.57;3.60;;;;;;;4.41;97.82;100165.88;5028617;28;20060;-87
2022/02/18 04:35:01;;;;;;;14.23;4.30;;;;;;;4.44;97.85;100163.31;5019223;28;20044;-87
2022/02/18 04:37:39;;;;;;;13.43;3.75;;;;;;;4.46;97.62;100159.03;5023080;28;20041;-87
2022/02/18 04:40:07;;;;;;;13.50;3.33;;;;;;;4.49;97.72;100145.22;5020118;28;20049;-87
2022/02/18 04:42:33;;;;;;;15.13;4.85;;;;;;;4.48;97.78;100146.91;5012246;28;20057;-87
2022/02/18 04:45:00;;;;;;;10.25;3.78;;;;;;;4.54;97.69;100148.72;5024311;28;20052;-88
2022/02/18 04:47:27;;;;;;;21.33;4.43;;;;;;;4.56;97.56;100144.38;4988363;28;20053;-88
2022/02/18 04:49:56;;;;;;;14.75;4.18;;;;;;;4.61;97.38;100150.47;5023973;28;20049;-88
2022/02/18 04:52:23;;;;;;;10.18;3.92;;;;;;;4.63;97.25;100151.38;5002477;28;20071;-88
2022/02/18 04:54:54;;;;;;;7.60;4.22;;;;;;;4.68;96.87;100136.72;5000295;28;20108;-86
2022/02/18 04:57:22;;;;;;;16.05;3.65;;;;;;;4.70;96.87;100128.94;5013574;28;20130;-86
2022/02/18 04:59:49;;;;;;;9.18;3.47;;;;;;;4.73;96.56;100123.75;4992888;28;20053;-88
2022/02/18 05:02:16;;;;;;;8.90;3.97;;;;;;;4.69;96.80;100115.09;5020271;28;20045;-89
2022/02/18 05:04:44;;;;;;;9.52;3.38;;;;;;;4.70;96.67;100114.25;4991542;28;20060;-88
2022/02/18 05:07:11;;;;;;;13.40;3.60;;;;;;;4.70;96.53;100108.19;4989238;28;20057;-87
2022/02/18 05:09:39;;;;;;;17.92;3.40;;;;;;;4.71;96.38;100113.38;5005743;28;20044;-87
2022/02/18 05:12:08;;;;;;;9.93;4.00;;;;;;;4.71;96.04;100099.56;5018383;28;20056;-85
2022/02/18 05:14:38;;;;;;;10.40;3.35;;;;;;;4.69;96.26;100101.28;5008187;28;20055;-84
2022/02/18 05:17:07;;;;;;;14.40;3.78;;;;;;;4.69;96.04;100104.72;4998016;28;20053;-88
2022/02/18 05:19:36;;;;;;;11.45;2.92;;;;;;;4.69;95.81;100098.69;5007623;28;20063;-86
2022/02/18 05:22:03;;;;;;;14.40;4.60;;;;;;;4.70;96.41;100092.66;4969348;28;20087;-87
2022/02/18 05:24:30;;;;;;;18.35;4.38;;;;;;;4.72;96.13;100102.16;4989550;28;20033;-86
2022/02/18 05:26:58;;;;;;;13.23;3.97;;;;;;;4.70;95.85;100096.09;5007132;28;20045;-93
2022/02/18 05:29:26;;;;;;;12.15;3.25;;;;;;;4.69;96.19;100078.78;5022743;28;20106;-87
2022/02/18 05:31:55;;;;;;;13.10;3.55;;;;;;;4.69;96.17;100073.59;4994385;28;20127;-86
2022/02/18 05:34:22;;;;;;;9.68;4.03;;;;;;;4.71;96.04;100061.53;5009538;28;20072;-85
2022/02/18 05:36:49;;;;;;;11.60;4.00;;;;;;;4.71;95.89;100068.47;5000121;28;20055;-87
2022/02/18 05:39:18;;;;;;;10.70;4.60;;;;;;;4.70;96.32;100066.72;4992039;28;20059;-86
2022/02/18 05:41:58;;;;;;;9.68;3.33;;;;;;;4.68;96.18;100074.50;5008404;28;20053;-86
2022/02/18 05:44:31;;;;;;;10.07;4.25;;;;;;;4.66;96.31;100070.16;5013548;28;20182;-86
2022/02/18 05:47:06;;;;;;;14.38;3.53;;;;;;;4.67;96.52;100064.09;5008885;28;20387;-85
2022/02/18 05:49:33;;;;;;;7.05;3.58;;;;;;;4.67;96.68;100064.97;5007853;28;20049;-86
2022/02/18 05:51:59;;;;;;;8.90;3.20;;;;;;;4.69;96.96;100060.63;4992506;28;20582;-87
2022/02/18 05:54:27;;;;;;;11.05;3.92;;;;;;;4.70;96.71;100048.56;4988894;28;20045;-86
2022/02/18 05:56:54;;;;;;;10.18;4.03;;;;;;;4.70;96.82;100051.16;5007346;28;20135;-87
2022/02/18 05:59:22;;;;;;;11.35;4.93;;;;;;;4.73;97.23;100046.88;5023227;28;20064;-86
2022/02/18 06:01:49;;;;;;;19.10;6.07;;;;;;;4.73;97.09;100044.28;5004997;28;20048;-84
2022/02/18 06:04:16;;;;;;;10.25;4.30;;;;;;;4.75;97.13;100036.50;4994240;28;20049;-86
2022/02/18 06:09:27;;;;;;;13.63;5.10;;;;;;;4.78;97.32;100028.72;5021467;28;20041;-86
2022/02/18 06:12:01;;;;;;;17.92;5.93;;;;;;;4.79;97.19;100010.56;5004281;28;20052;-86
2022/02/18 06:14:28;;;;;;;12.25;5.97;;;;;;;4.83;96.98;100005.41;5003880;28;20041;-86
2022/02/18 06:16:56;;;;;;;10.15;5.80;;;;;;;4.84;97.03;100000.22;5002366;28;20064;-87
2022/02/18 06:19:22;;;;;;;15.10;7.03;;;;;;;4.87;97.10;100001.97;5012132;28;20060;-91
2022/02/18 06:21:52;;;;;;;19.45;6.25;;;;;;;4.90;97.12;100001.97;5012182;28;20041;-86
2022/02/18 06:24:23;;;;;;;17.85;7.38;;;;;;;4.92;97.21;99997.66;5026367;28;20080;-89
2022/02/18 06:26:49;;;;;;;16.92;7.57;;;;;;;4.93;97.15;99987.28;4990741;28;20041;-86
2022/02/18 06:29:17;;;;;;;12.80;6.57;;;;;;;4.94;97.10;99976.06;5000162;28;20075;-86
2022/02/18 06:31:44;;;;;;;18.13;7.60;;;;;;;4.95;97.21;99987.28;5008033;28;20122;-85
2022/02/18 06:34:17;;;;;;;13.98;7.88;;;;;;;4.97;97.03;99988.16;5030656;28;20041;-87
2022/02/18 06:36:45;;;;;;;15.95;6.95;;;;;;;5.01;97.31;99989.91;5021363;28;20049;-88
2022/02/18 06:39:15;;;;;;;24.33;9.13;;;;;;;5.03;97.01;99995.97;5012411;28;20072;-84
2022/02/18 06:41:41;;;;;;;14.85;8.55;;;;;;;5.05;97.06;99988.19;5014017;28;20144;-86
2022/02/18 06:44:10;;;;;;;19.63;9.90;;;;;;;5.09;96.82;99976.97;5008858;28;20107;-87
2022/02/18 06:46:38;;;;;;;12.10;8.07;;;;;;;5.11;96.73;99976.09;5031476;28;20086;-86
2022/02/18 06:49:08;;;;;;;25.17;9.35;;;;;;;5.14;96.93;99968.31;5014330;28;20507;-88
2022/02/18 06:51:35;;;;;;;17.48;9.93;;;;;;;5.21;96.46;99974.38;5011418;28;20049;-87
2022/02/18 06:54:03;;;;;;;19.15;8.98;;;;;;;5.26;97.06;99975.25;5003657;28;20301;-87
2022/02/18 06:56:29;;;;;;;17.77;10.77;;;;;;;5.28;96.81;99968.34;4996453;28;20055;-88
2022/02/18 06:58:56;;;;;;;18.40;10.93;;;;;;;5.32;97.03;99965.75;5015027;28;20056;-86
2022/02/18 07:01:23;;;;;;;21.17;11.15;;;;;;;5.35;97.14;99955.41;5015608;28;20107;-84
2022/02/18 07:03:55;;;;;;;19.42;10.63;;;;;;;5.38;97.04;99955.38;5002843;28;20101;-86
2022/02/18 07:06:31;;;;;;;18.10;10.80;;;;;;;5.39;98.07;99952.78;5026799;28;21246;-85
2022/02/18 07:09:02;;;;;;;24.83;11.10;;;;;;;5.41;98.30;99939.81;4998340;28;20056;-87
2022/02/18 07:11:29;;;;;;;17.63;9.40;;;;;;;5.41;98.20;99951.06;5023649;28;20045;-86
2022/02/18 07:13:58;;;;;;;16.77;10.15;;;;;;;5.43;98.90;99938.94;4997401;28;20064;-84
2022/02/18 07:16:26;;;;;;;17.90;9.50;;;;;;;5.44;99.08;99924.25;4991007;28;20061;-83
2022/02/18 07:18:54;;;;;;;25.88;11.50;;;;;;;5.46;98.88;99927.69;5029778;28;20048;-86
2022/02/18 07:21:23;;;;;;;20.27;10.35;;;;;;;5.48;98.97;99920.78;5024566;28;20048;-86
2022/02/18 07:23:50;;;;;;;23.48;8.95;;;;;;;5.52;98.98;99913.88;5011309;28;20059;-86
2022/02/18 07:26:17;;;;;;;16.70;7.82;;;;;;;5.53;98.83;99910.38;5026467;28;20044;-88
2022/02/18 07:28:48;;;;;;;19.52;9.40;;;;;;;5.54;98.88;99894.81;4991941;28;20075;-86
2022/02/18 07:31:15;;;;;;;16.30;8.73;;;;;;;5.56;99.25;99858.47;5032028;28;20104;-85
2022/02/18 07:33:41;;;;;;;18.70;8.45;;;;;;;5.53;98.82;99829.91;5009416;28;20056;-86
2022/02/18 07:36:08;;;;;;;16.83;8.63;;;;;;;5.54;98.96;99823.84;5017005;28;20049;-87
2022/02/18 07:38:37;;;;;;;21.02;9.43;;;;;;;5.55;99.41;99823.84;5028988;28;20104;-87
2022/02/18 07:41:04;;;;;;;18.65;9.02;;;;;;;5.59;99.20;99814.31;5012253;28;20064;-87
2022/02/18 07:43:31;;;;;;;16.63;9.27;;;;;;;5.59;99.13;99804.81;5013114;28;20051;-87
2022/02/18 07:46:00;;;;;;;20.80;10.02;;;;;;;5.60;99.11;99800.47;5021680;28;20049;-84
2022/02/18 07:48:27;;;;;;;19.60;9.27;;;;;;;5.61;99.27;99794.44;5024020;28;20144;-87
2022/02/18 07:50:54;;;;;;;11.45;7.93;;;;;;;5.62;98.94;99781.44;5011163;28;20084;-85
2022/02/18 07:53:22;;;;;;;21.90;9.55;;;;;;;5.64;98.79;99773.63;5026947;28;20049;-87
2022/02/18 07:55:50;;;;;;;20.83;11.07;;;;;;;5.66;98.89;99774.50;5036696;28;20052;-85
2022/02/18 07:58:18;;;;;;;20.83;8.88;;;;;;;5.65;98.52;99764.13;5052696;28;20052;-87
2022/02/18 08:00:47;;;;;;;18.13;8.43;;;;;;;5.66;98.23;99752.84;5059296;28;20069;-88
2022/02/18 08:03:17;;;;;;;25.20;8.43;;;;;;;5.67;98.07;99736.41;5008726;28;20053;-88
2022/02/18 08:05:45;;;;;;;16.02;6.93;;;;;;;5.64;97.71;99695.75;5032428;28;20041;-88
2022/02/18 08:08:20;;;;;;;17.65;6.47;;;;;;;5.66;97.57;99693.13;5050706;28;20040;-84
2022/02/18 08:13:32;;;;;;;10.00;6.18;;;;;;;5.76;97.15;99707.81;5044789;28;20052;-83
2022/02/18 08:15:59;;;;;;;12.95;6.70;;;;;;;5.78;96.44;99693.09;5055077;28;20042;-84
2022/02/18 08:18:25;;;;;;;13.82;6.20;;;;;;;5.76;95.55;99650.66;5050942;28;20578;-84
2022/02/18 08:20:54;;;;;;;12.93;5.32;;;;;;;5.77;95.58;99645.47;5014178;28;20476;-85
2022/02/18 08:23:22;;;;;;;13.10;4.60;;;;;;;5.79;95.33;99642.88;5036433;28;20057;-84
2022/02/18 08:25:49;;;;;;;10.70;4.75;;;;;;;5.79;94.82;99669.72;5054263;28;21518;-85
2022/02/18 08:31:00;;;;;;;11.95;4.88;;;;;;;5.89;95.06;99654.94;5038115;28;20047;-83
2022/02/18 08:33:27;;;;;;;16.77;5.57;;;;;;;5.92;93.98;99657.50;5038666;28;20056;-85
2022/02/18 08:35:57;;;;;;;15.93;4.82;;;;;;;5.91;93.97;99642.78;5032467;28;20056;-85
2022/02/18 08:38:26;;;;;;;14.77;4.30;;;;;;;5.89;92.74;99639.38;5034051;28;20135;-85
2022/02/18 08:40:53;;;;;;;14.90;5.13;;;;;;;5.93;93.24;99650.56;5029520;28;20061;-85
2022/02/18 08:43:20;;;;;;;11.75;3.97;;;;;;;5.93;92.62;99643.66;5030205;28;20041;-87
2022/02/18 08:45:48;;;;;;;15.93;4.60;;;;;;;5.97;92.65;99639.28;5017037;28;20042;-87
2022/02/18 08:48:16;;;;;;;13.77;3.50;;;;;;;6.02;92.46;99628.91;5027983;28;20819;-86
2022/02/18 08:50:43;;;;;;;14.43;3.90;;;;;;;6.01;91.63;99630.66;5031330;28;20037;-85
2022/02/18 08:53:10;;;;;;;11.15;4.75;;;;;;;6.05;91.89;99619.38;5027466;28;21088;-86
2022/02/18 08:55:39;;;;;;;11.63;4.10;;;;;;;6.07;90.89;99603.75;5014596;28;20168;-87
2022/02/18 08:58:07;;;;;;;8.55;3.47;;;;;;;6.10;90.31;99606.31;5018350;28;20084;-82
2022/02/18 09:00:34;;;;;;;7.35;3.80;;;;;;;6.11;89.50;99588.16;5023581;28;20056;-86
2022/02/18 09:03:02;;;;;;;8.95;4.43;;;;;;;6.14;89.02;99582.06;5014220;28;20053;-85
2022/02/18 09:05:31;;;;;;;13.40;3.78;;;;;;;6.19;89.16;99580.28;5007268;28;20057;-86
2022/02/18 09:08:00;;;;;;;8.57;3.17;;;;;;;6.20;88.14;99576.78;5041240;28;20044;-87
2022/02/18 09:10:27;;;;;;;6.40;2.92;;;;;;;6.23;87.82;99574.19;5027302;28;20069;-86
2022/02/18 09:12:55;;;;;;;7.13;2.95;;;;;;;6.24;87.65;99565.50;5021247;28;20049;-86
2022/02/18 09:15:22;;;;;;;10.15;3.20;;;;;;;6.24;87.64;99555.09;5043055;28;20120;-86
2022/02/18 09:17:51;;;;;;;16.58;3.25;;;;;;;6.24;87.60;99544.69;5027832;28;20600;-86
2022/02/18 09:20:18;;;;;;;12.23;3.28;;;;;;;6.23;86.83;99540.41;5025215;28;20049;-86
2022/02/18 09:22:46;;;;;;;14.57;3.33;;;;;;;6.26;87.06;99529.13;5027473;28;20053;-86
2022/02/18 09:25:13;;;;;;;6.90;2.50;;;;;;;6.31;86.22;99523.88;5021858;28;20128;-87
2022/02/18 09:27:47;;;;;;;17.60;4.60;;;;;;;6.31;85.77;99501.34;5040709;28;20050;-86
2022/02/18 09:30:15;;;;;;;6.93;3.25;;;;;;;6.36;85.64;99496.09;5005555;28;20121;-85
2022/02/18 09:32:42;;;;;;;11.35;3.50;;;;;;;6.38;86.48;99481.34;5011362;28;20045;-87
2022/02/18 09:35:09;;;;;;;6.00;3.03;;;;;;;6.39;86.58;99483.94;5007070;28;20555;-85
2022/02/18 09:37:42;;;;;;;6.35;2.63;;;;;;;6.41;87.02;99468.31;5018525;28;20067;-85
2022/02/18 09:40:12;;;;;;;5.72;2.28;;;;;;;6.42;87.13;99467.44;5006773;28;20486;-85
2022/02/18 09:42:45;;;;;;;5.97;2.67;;;;;;;6.46;87.60;99461.31;4994871;28;20040;-85
2022/02/18 09:45:13;;;;;;;11.38;2.75;;;;;;;6.48;87.19;99451.78;4992182;28;20506;-86
2022/02/18 09:47:46;;;;;;;12.48;2.10;;;;;;;6.50;87.11;99439.59;5008801;28;20495;-83
2022/02/18 09:50:14;;;;;;;8.25;2.47;;;;;;;6.54;87.25;99430.03;5001296;28;20048;-88
2022/02/18 09:52:41;;;;;;;14.50;2.78;;;;;;;6.56;86.88;99429.13;5018322;28;20499;-88
2022/02/18 09:55:08;;;;;;;11.23;2.90;;;;;;;6.57;87.36;99419.59;4991782;28;20126;-86
2022/02/18 09:57:44;;;;;;;4.82;2.97;;;;;;;6.61;87.66;99410.88;5010720;28;20049;-87
2022/02/18 10:00:12;;;;;;;6.65;2.10;;;;;;;6.59;87.33;99397.88;4995350;28;20042;-87
2022/02/18 10:02:41;;;;;;;12.90;3.22;;;;;;;6.58;87.99;99378.00;5001537;28;20059;-86
2022/02/18 10:05:09;;;;;;;10.02;2.90;;;;;;;6.56;88.40;99376.28;5005147;28;20106;-86
2022/02/18 10:08:17;;;;;;;10.15;3.80;;;;;;;6.55;90.06;99349.41;4988756;28;20057;-87
2022/02/18 10:11:00;;;;;;;7.05;2.75;;;;;;;6.48;90.71;99366.00;5011293;28;20069;-86
2022/02/18 10:13:31;;;;;;;11.00;2.70;;;;;;;6.41;92.70;99353.94;4988398;28;20044;-86
2022/02/18 10:16:05;;;;;;;15.95;2.40;;;;;;;6.33;94.32;99348.81;5024285;28;20052;-87
2022/02/18 10:18:59;;;;;;;8.52;2.72;;;;;;;6.20;96.45;99331.69;5016919;28;20136;-88
2022/02/18 10:21:37;;;;;;;10.38;3.03;;;;;;;6.11;98.64;99312.75;4988803;28;20041;-85
2022/02/18 10:24:17;;;;;;;8.63;2.97;;;;;;;6.03;100.00;99305.91;4981809;28;20524;-86
2022/02/18 10:26:54;;;;;;;17.35;2.65;;;;;;;5.96;100.00;99292.09;5015767;28;20049;-86
2022/02/18 10:29:30;;;;;;;6.65;2.55;;;;;;;5.87;100.00;99279.22;5008295;28;20724;-84
2022/02/18 10:32:13;;;;;;;11.27;2.20;;;;;;;5.75;100.00;99288.88;5000987;28;20415;-84
2022/02/18 10:35:04;;;;;;;6.63;2.75;;;;;;;5.70;100.00;99282.88;5009479;28;20057;-86
2022/02/18 10:37:34;;;;;;;11.20;3.53;;;;;;;5.69;100.00;99237.00;4999464;28;20045;-87
2022/02/18 10:40:16;;;;;;;7.78;2.30;;;;;;;5.60;100.00;99240.56;5034209;28;20041;-88
2022/02/18 10:42:48;;;;;;;7.20;1.85;;;;;;;5.60;100.00;99250.09;5035383;28;20084;-87
2022/02/18 10:45:23;;;;;;;7.30;2.28;;;;;;;5.62;100.00;99232.78;5002975;28;20171;-87
2022/02/18 10:48:06;;;;;;;10.40;2.28;;;;;;;5.62;100.00;99225.84;5011417;28;20420;-86
2022/02/18 10:50:34;;;;;;;10.07;3.05;;;;;;;5.66;100.00;99203.31;5004014;28;20117;-87
2022/02/18 10:53:21;;;;;;;13.73;2.25;;;;;;;5.67;100.00;99218.00;5007930;28;20051;-87
2022/02/18 10:55:59;;;;;;;10.23;2.92;;;;;;;5.72;100.00;99208.44;5014128;28;20712;-89
2022/02/18 10:58:35;;;;;;;9.55;2.67;;;;;;;5.79;100.00;99188.44;5007330;28;20053;-89
2022/02/18 11:01:23;;;;;;;9.85;2.70;;;;;;;5.84;100.00;99189.22;5012354;28;20045;-89
2022/02/18 11:04:05;;;;;;;8.77;1.83;;;;;;;5.91;100.00;99187.41;4986458;28;21234;-85
2022/02/18 11:06:40;;;;;;;15.20;2.78;;;;;;;6.02;100.00;99153.50;5026051;28;20101;-86
2022/02/18 11:09:14;;;;;;;12.07;2.85;;;;;;;6.12;100.00;99137.75;4995199;28;20067;-88
2022/02/18 11:11:50;;;;;;;10.55;2.50;;;;;;;6.27;100.00;99120.22;5025055;28;21900;-87
2022/02/18 11:14:28;;;;;;;14.15;2.22;;;;;;;6.39;100.00;99104.44;5006487;28;20085;-87
2022/02/18 11:16:58;;;;;;;6.88;1.98;;;;;;;6.52;100.00;99086.00;5022192;28;20399;-88
2022/02/18 11:19:28;;;;;;;12.52;2.60;;;;;;;6.58;100.00;99096.31;4994416;28;20493;-85
2022/02/18 11:21:55;;;;;;;3.58;1.65;;;;;;;6.65;100.00;99094.44;5004074;28;21128;-86
2022/02/18 11:24:31;;;;;;;9.57;2.75;;;;;;;6.73;100.00;99071.78;5015038;28;20103;-85
2022/02/18 11:27:04;;;;;;;8.75;2.53;;;;;;;6.81;100.00;99069.88;5002419;28;20046;-86
2022/02/18 11:29:35;;;;;;;8.45;2.60;;;;;;;6.90;100.00;99061.06;5020100;28;20045;-87
2022/02/18 11:32:27;;;;;;;9.38;2.35;;;;;;;6.99;100.00;99045.25;4993518;28;20107;-86
2022/02/18 11:35:39;;;;;;;18.13;3.53;;;;;;;7.10;100.00;99050.22;4985209;28;20060;-86
2022/02/18 11:38:38;;;;;;;9.52;1.60;;;;;;;7.18;100.00;99021.44;5015326;28;20060;-86
2022/02/18 11:42:03;;;;;;;12.75;2.67;;;;;;;7.26;100.00;99014.31;5016446;28;20053;-87
2022/02/18 11:44:42;;;;;;;5.28;1.80;;;;;;;7.34;100.00;99001.13;4984544;28;20045;-88
2022/02/18 11:47:24;;;;;;;8.55;2.35;;;;;;;7.39;100.00;98975.88;5012344;28;20052;-88
2022/02/18 11:49:57;;;;;;;10.75;2.58;;;;;;;7.44;100.00;98980.09;5048082;28;20131;-87
2022/02/18 11:52:25;;;;;;;7.40;0.95;;;;;;;7.51;100.00;98972.13;5001684;28;20053;-86
2022/02/18 11:54:52;;;;;;;3.20;1.30;;;;;;;7.57;100.00;98962.44;5022312;28;20049;-87
2022/02/18 11:57:22;;;;;;;5.57;0.95;;;;;;;7.62;100.00;98946.69;5021704;28;20055;-87
2022/02/18 12:00:12;;;;;;;5.18;1.65;;;;;;;7.66;100.00;98937.06;5046658;28;20044;-88
2022/02/18 12:02:48;;;;;;;6.18;1.25;;;;;;;7.69;100.00;98922.22;5053306;28;20033;-86
2022/02/18 12:05:21;;;;;;;3.85;1.50;;;;;;;7.73;100.00;98897.81;5021636;28;20052;-87